sensor_id;sensor_type;location;lat;lon;timestamp;pressure;altitude;pressure_sealevel;temperature;humidity
76694;BME280;69667;52.136;5.424;2023-07-29T00:00:58;100799.59;;;16.91;97.07
76694;BME280;69667;52.136;5.424;2023-07-29T00:03:27;100783.53;;;16.88;96.91
76694;BME280;69667;52.136;5.424;2023-07-29T00:05:58;100787.63;;;16.84;96.55
76694;BME280;69667;52.136;5.424;2023-07-29T00:08:26;100784.50;;;16.79;96.66
76694;BME280;69667;52.136;5.424;2023-07-29T00:10:54;100784.94;;;16.74;96.45
76694;BME280;69667;52.136;5.424;2023-07-29T00:13:23;100781.84;;;16.69;96.27
76694;BME280;69667;52.136;5.424;2023-07-29T00:15:54;100773.16;;;16.66;96.81
76694;BME280;69667;52.136;5.424;2023-07-29T00:18:23;100759.97;;;16.61;96.85
76694;BME280;69667;52.136;5.424;2023-07-29T00:20:51;100766.91;;;16.56;96.75
76694;BME280;69667;52.136;5.424;2023-07-29T00:23:19;100766.38;;;16.52;97.02
76694;BME280;69667;52.136;5.424;2023-07-29T00:25:48;100759.66;;;16.47;97.41
76694;BME280;69667;52.136;5.424;2023-07-29T00:28:16;100753.63;;;16.43;97.44
76694;BME280;69667;52.136;5.424;2023-07-29T00:30:49;100757.53;;;16.40;97.19
76694;BME280;69667;52.136;5.424;2023-07-29T00:33:17;100750.19;;;16.41;97.15
76694;BME280;69667;52.136;5.424;2023-07-29T00:35:47;100738.28;;;16.42;97.65
76694;BME280;69667;52.136;5.424;2023-07-29T00:38:15;100736.00;;;16.47;98.10
76694;BME280;69667;52.136;5.424;2023-07-29T00:40:43;100729.38;;;16.50;97.66
76694;BME280;69667;52.136;5.424;2023-07-29T00:43:11;100745.88;;;16.48;97.64
76694;BME280;69667;52.136;5.424;2023-07-29T00:45:41;100763.41;;;16.46;98.25
76694;BME280;69667;52.136;5.424;2023-07-29T00:48:11;100761.75;;;16.53;98.42
76694;BME280;69667;52.136;5.424;2023-07-29T00:50:40;100761.97;;;16.59;98.60
76694;BME280;69667;52.136;5.424;2023-07-29T00:53:08;100765.97;;;16.65;98.33
76694;BME280;69667;52.136;5.424;2023-07-29T00:55:37;100766.03;;;16.73;98.79
76694;BME280;69667;52.136;5.424;2023-07-29T00:58:05;100741.03;;;16.77;98.35
76694;BME280;69667;52.136;5.424;2023-07-29T01:00:33;100741.03;;;16.77;98.55
76694;BME280;69667;52.136;5.424;2023-07-29T01:03:03;100745.09;;;16.73;97.98
76694;BME280;69667;52.136;5.424;2023-07-29T01:05:43;100740.56;;;16.64;97.89
76694;BME280;69667;52.136;5.424;2023-07-29T01:08:51;100737.75;;;16.56;97.71
76694;BME280;69667;52.136;5.424;2023-07-29T01:15:22;100747.16;;;16.44;97.67
76694;BME280;69667;52.136;5.424;2023-07-29T01:17:36;100752.38;;;16.37;97.51
76694;BME280;69667;52.136;5.424;2023-07-29T01:20:09;100745.69;;;16.32;97.80
76694;BME280;69667;52.136;5.424;2023-07-29T01:22:38;100741.69;;;16.26;97.96
76694;BME280;69667;52.136;5.424;2023-07-29T01:25:07;100740.00;;;16.25;98.28
76694;BME280;69667;52.136;5.424;2023-07-29T01:27:36;100745.44;;;16.25;97.96
76694;BME280;69667;52.136;5.424;2023-07-29T01:30:05;100739.28;;;16.23;98.07
76694;BME280;69667;52.136;5.424;2023-07-29T01:35:27;100744.91;;;16.22;98.41
76694;BME280;69667;52.136;5.424;2023-07-29T01:38:01;100746.03;;;16.19;98.32
76694;BME280;69667;52.136;5.424;2023-07-29T01:40:31;100736.16;;;16.18;98.41
76694;BME280;69667;52.136;5.424;2023-07-29T01:43:01;100740.91;;;16.16;98.50
76694;BME280;69667;52.136;5.424;2023-07-29T01:45:29;100737.47;;;16.14;98.51
76694;BME280;69667;52.136;5.424;2023-07-29T01:48:03;100737.63;;;16.13;99.00
76694;BME280;69667;52.136;5.424;2023-07-29T01:50:32;100732.03;;;16.14;98.81
76694;BME280;69667;52.136;5.424;2023-07-29T01:53:01;100729.31;;;16.14;98.98
76694;BME280;69667;52.136;5.424;2023-07-29T01:55:29;100726.59;;;16.14;99.28
76694;BME280;69667;52.136;5.424;2023-07-29T01:57:57;100724.41;;;16.18;99.45
76694;BME280;69667;52.136;5.424;2023-07-29T02:00:26;100726.66;;;16.22;99.79
76694;BME280;69667;52.136;5.424;2023-07-29T02:02:55;100720.63;;;16.28;99.88
76694;BME280;69667;52.136;5.424;2023-07-29T02:05:23;100721.84;;;16.34;100.00
76694;BME280;69667;52.136;5.424;2023-07-29T02:07:51;100724.13;;;16.38;100.00
76694;BME280;69667;52.136;5.424;2023-07-29T02:10:20;100727.06;;;16.45;100.00
76694;BME280;69667;52.136;5.424;2023-07-29T02:12:48;100715.75;;;16.50;100.00
76694;BME280;69667;52.136;5.424;2023-07-29T02:15:17;100718.69;;;16.56;100.00
76694;BME280;69667;52.136;5.424;2023-07-29T02:17:45;100720.09;;;16.60;100.00
76694;BME280;69667;52.136;5.424;2023-07-29T02:20:14;100712.78;;;16.61;100.00
76694;BME280;69667;52.136;5.424;2023-07-29T02:22:42;100713.78;;;16.60;100.00
76694;BME280;69667;52.136;5.424;2023-07-29T02:25:12;100717.00;;;16.55;99.99
76694;BME280;69667;52.136;5.424;2023-07-29T02:27:40;100712.69;;;16.53;100.00
76694;BME280;69667;52.136;5.424;2023-07-29T02:30:09;100712.84;;;16.51;100.00
76694;BME280;69667;52.136;5.424;2023-07-29T02:32:37;100714.03;;;16.49;99.94
76694;BME280;69667;52.136;5.424;2023-07-29T02:35:06;100711.31;;;16.49;100.00
76694;BME280;69667;52.136;5.424;2023-07-29T02:37:34;100706.03;;;16.47;100.00
76694;BME280;69667;52.136;5.424;2023-07-29T02:40:03;100711.63;;;16.46;100.00
76694;BME280;69667;52.136;5.424;2023-07-29T02:42:32;100716.06;;;16.47;100.00
76694;BME280;69667;52.136;5.424;2023-07-29T02:45:00;100707.00;;;16.46;100.00
76694;BME280;69667;52.136;5.424;2023-07-29T02:47:28;100706.28;;;16.44;100.00
76694;BME280;69667;52.136;5.424;2023-07-29T02:49:57;100702.00;;;16.41;100.00
76694;BME280;69667;52.136;5.424;2023-07-29T02:52:25;100708.50;;;16.40;100.00
76694;BME280;69667;52.136;5.424;2023-07-29T02:54:53;100705.06;;;16.38;100.00
76694;BME280;69667;52.136;5.424;2023-07-29T02:57:21;100703.16;;;16.39;100.00
76694;BME280;69667;52.136;5.424;2023-07-29T02:59:51;100694.47;;;16.35;100.00
76694;BME280;69667;52.136;5.424;2023-07-29T03:02:19;100697.31;;;16.34;100.00
76694;BME280;69667;52.136;5.424;2023-07-29T03:04:48;100704.13;;;16.30;100.00
76694;BME280;69667;52.136;5.424;2023-07-29T03:07:16;100704.28;;;16.28;100.00
76694;BME280;69667;52.136;5.424;2023-07-29T03:09:45;100696.94;;;16.29;100.00
76694;BME280;69667;52.136;5.424;2023-07-29T03:12:13;100687.94;;;16.28;100.00
76694;BME280;69667;52.136;5.424;2023-07-29T03:14:41;100680.75;;;16.27;100.00
76694;BME280;69667;52.136;5.424;2023-07-29T03:17:09;100682.78;;;16.25;100.00
76694;BME280;69667;52.136;5.424;2023-07-29T03:19:38;100677.34;;;16.25;100.00
76694;BME280;69667;52.136;5.424;2023-07-29T03:22:06;100687.53;;;16.23;100.00
76694;BME280;69667;52.136;5.424;2023-07-29T03:24:34;100682.25;;;16.22;100.00
76694;BME280;69667;52.136;5.424;2023-07-29T03:27:03;100681.38;;;16.21;100.00
76694;BME280;69667;52.136;5.424;2023-07-29T03:29:32;100688.84;;;16.19;100.00
76694;BME280;69667;52.136;5.424;2023-07-29T03:32:00;100692.75;;;16.17;100.00
76694;BME280;69667;52.136;5.424;2023-07-29T03:34:29;100693.59;;;16.17;100.00
76694;BME280;69667;52.136;5.424;2023-07-29T03:36:57;100690.88;;;16.17;100.00
76694;BME280;69667;52.136;5.424;2023-07-29T03:39:25;100696.31;;;16.17;100.00
76694;BME280;69667;52.136;5.424;2023-07-29T03:41:54;100678.13;;;16.18;100.00
76694;BME280;69667;52.136;5.424;2023-07-29T03:44:22;100683.41;;;16.19;100.00
76694;BME280;69667;52.136;5.424;2023-07-29T03:46:50;100678.81;;;16.20;100.00
76694;BME280;69667;52.136;5.424;2023-07-29T03:49:18;100684.97;;;16.22;100.00
76694;BME280;69667;52.136;5.424;2023-07-29T03:51:47;100697.00;;;16.19;100.00
76694;BME280;69667;52.136;5.424;2023-07-29T03:54:15;100687.00;;;16.20;100.00
76694;BME280;69667;52.136;5.424;2023-07-29T03:56:43;100692.44;;;16.20;100.00
76694;BME280;69667;52.136;5.424;2023-07-29T03:59:11;100696.03;;;16.20;100.00
76694;BME280;69667;52.136;5.424;2023-07-29T04:01:40;100702.31;;;16.21;100.00
76694;BME280;69667;52.136;5.424;2023-07-29T04:04:08;100702.63;;;16.18;100.00
76694;BME280;69667;52.136;5.424;2023-07-29T04:06:36;100695.47;;;16.17;100.00
76694;BME280;69667;52.136;5.424;2023-07-29T04:09:05;100700.91;;;16.17;100.00
76694;BME280;69667;52.136;5.424;2023-07-29T04:11:34;100699.19;;;16.16;100.00
76694;BME280;69667;52.136;5.424;2023-07-29T04:14:03;100705.50;;;16.16;100.00
76694;BME280;69667;52.136;5.424;2023-07-29T04:16:31;100700.22;;;16.15;100.00
76694;BME280;69667;52.136;5.424;2023-07-29T04:18:59;100702.94;;;16.15;100.00
76694;BME280;69667;52.136;5.424;2023-07-29T04:21:28;100698.47;;;16.14;100.00
76694;BME280;69667;52.136;5.424;2023-07-29T04:23:56;100688.44;;;16.14;100.00
76694;BME280;69667;52.136;5.424;2023-07-29T04:26:24;100687.47;;;16.15;100.00
76694;BME280;69667;52.136;5.424;2023-07-29T04:28:53;100683.00;;;16.14;100.00
76694;BME280;69667;52.136;5.424;2023-07-29T04:31:21;100687.59;;;16.14;100.00
76694;BME280;69667;52.136;5.424;2023-07-29T04:33:49;100682.84;;;16.16;100.00
76694;BME280;69667;52.136;5.424;2023-07-29T04:36:18;100702.78;;;16.16;99.75
76694;BME280;69667;52.136;5.424;2023-07-29T04:38:46;100692.59;;;16.18;99.59
76694;BME280;69667;52.136;5.424;2023-07-29T04:41:14;100697.72;;;16.21;99.54
76694;BME280;69667;52.136;5.424;2023-07-29T04:43:43;100698.59;;;16.22;99.54
76694;BME280;69667;52.136;5.424;2023-07-29T04:46:11;100697.56;;;16.23;98.82
76694;BME280;69667;52.136;5.424;2023-07-29T04:48:39;100697.88;;;16.20;98.98
76694;BME280;69667;52.136;5.424;2023-07-29T04:51:08;100706.75;;;16.22;98.23
76694;BME280;69667;52.136;5.424;2023-07-29T04:53:36;100695.72;;;16.23;98.02
76694;BME280;69667;52.136;5.424;2023-07-29T04:56:05;100704.19;;;16.20;98.80
76694;BME280;69667;52.136;5.424;2023-07-29T04:58:33;100704.03;;;16.22;98.22
76694;BME280;69667;52.136;5.424;2023-07-29T05:01:03;100705.03;;;16.21;97.76
76694;BME280;69667;52.136;5.424;2023-07-29T05:03:31;100708.00;;;16.27;98.46
76694;BME280;69667;52.136;5.424;2023-07-29T05:06:00;100709.41;;;16.31;97.95
76694;BME280;69667;52.136;5.424;2023-07-29T05:08:29;100710.03;;;16.43;97.84
76694;BME280;69667;52.136;5.424;2023-07-29T05:10:57;100714.44;;;16.54;97.08
76694;BME280;69667;52.136;5.424;2023-07-29T05:13:25;100715.19;;;16.64;97.29
76694;BME280;69667;52.136;5.424;2023-07-29T05:15:53;100716.81;;;16.74;96.13
76694;BME280;69667;52.136;5.424;2023-07-29T05:18:22;100718.75;;;16.82;95.52
76694;BME280;69667;52.136;5.424;2023-07-29T05:20:50;100716.94;;;16.90;95.85
76694;BME280;69667;52.136;5.424;2023-07-29T05:23:19;100725.66;;;16.94;95.11
76694;BME280;69667;52.136;5.424;2023-07-29T05:25:47;100724.31;;;16.98;94.84
76694;BME280;69667;52.136;5.424;2023-07-29T05:28:16;100721.97;;;17.03;94.25
76694;BME280;69667;52.136;5.424;2023-07-29T05:30:44;100723.00;;;17.02;93.85
76694;BME280;69667;52.136;5.424;2023-07-29T05:33:12;100719.56;;;17.00;94.17
76694;BME280;69667;52.136;5.424;2023-07-29T05:35:41;100719.41;;;17.01;93.65
76694;BME280;69667;52.136;5.424;2023-07-29T05:38:09;100724.13;;;17.17;93.80
76694;BME280;69667;52.136;5.424;2023-07-29T05:40:37;100723.00;;;17.27;93.02
76694;BME280;69667;52.136;5.424;2023-07-29T05:43:06;100725.63;;;17.37;92.17
76694;BME280;69667;52.136;5.424;2023-07-29T05:45:34;100739.22;;;17.54;91.62
76694;BME280;69667;52.136;5.424;2023-07-29T05:48:02;100733.31;;;17.67;90.92
76694;BME280;69667;52.136;5.424;2023-07-29T05:50:31;100738.50;;;17.86;91.03
76694;BME280;69667;52.136;5.424;2023-07-29T05:53:00;100737.03;;;18.00;90.00
76694;BME280;69667;52.136;5.424;2023-07-29T05:55:28;100737.38;;;17.97;89.71
76694;BME280;69667;52.136;5.424;2023-07-29T05:57:57;100732.44;;;18.08;89.29
76694;BME280;69667;52.136;5.424;2023-07-29T06:00:25;100729.75;;;18.24;88.19
76694;BME280;69667;52.136;5.424;2023-07-29T06:02:53;100733.53;;;18.23;88.39
76694;BME280;69667;52.136;5.424;2023-07-29T06:05:22;100738.66;;;18.26;88.18
76694;BME280;69667;52.136;5.424;2023-07-29T06:07:52;100729.78;;;18.32;87.67
76694;BME280;69667;52.136;5.424;2023-07-29T06:10:20;100723.97;;;18.27;87.87
76694;BME280;69667;52.136;5.424;2023-07-29T06:12:49;100731.47;;;18.25;87.79
76694;BME280;69667;52.136;5.424;2023-07-29T06:15:17;100730.19;;;18.45;87.29
76694;BME280;69667;52.136;5.424;2023-07-29T06:17:49;100726.59;;;19.01;86.84
76694;BME280;69667;52.136;5.424;2023-07-29T06:20:18;100712.28;;;20.62;81.82
76694;BME280;69667;52.136;5.424;2023-07-29T06:22:46;100719.25;;;22.19;74.01
76694;BME280;69667;52.136;5.424;2023-07-29T06:25:15;100710.59;;;22.22;73.07
76694;BME280;69667;52.136;5.424;2023-07-29T06:27:43;100718.44;;;23.86;68.07
76694;BME280;69667;52.136;5.424;2023-07-29T06:30:11;100722.06;;;23.04;67.91
76694;BME280;69667;52.136;5.424;2023-07-29T06:32:40;100721.38;;;23.23;66.82
76694;BME280;69667;52.136;5.424;2023-07-29T06:35:08;100727.28;;;22.56;69.36
76694;BME280;69667;52.136;5.424;2023-07-29T06:37:36;100729.72;;;21.80;72.06
76694;BME280;69667;52.136;5.424;2023-07-29T06:40:05;100729.22;;;21.48;73.11
76694;BME280;69667;52.136;5.424;2023-07-29T06:42:33;100736.13;;;21.58;73.37
76694;BME280;69667;52.136;5.424;2023-07-29T06:45:01;100718.94;;;22.50;72.01
76694;BME280;69667;52.136;5.424;2023-07-29T06:47:30;100714.69;;;22.83;68.64
76694;BME280;69667;52.136;5.424;2023-07-29T06:49:58;100731.03;;;21.70;72.41
76694;BME280;69667;52.136;5.424;2023-07-29T06:52:26;100740.69;;;20.99;75.09
76694;BME280;69667;52.136;5.424;2023-07-29T06:54:54;100734.56;;;20.89;76.20
76694;BME280;69667;52.136;5.424;2023-07-29T06:57:23;100744.63;;;20.74;77.10
76694;BME280;69667;52.136;5.424;2023-07-29T06:59:51;100739.97;;;20.52;78.09
76694;BME280;69667;52.136;5.424;2023-07-29T07:02:19;100738.06;;;20.30;78.35
76694;BME280;69667;52.136;5.424;2023-07-29T07:04:47;100747.22;;;20.06;79.09
76694;BME280;69667;52.136;5.424;2023-07-29T07:07:15;100743.00;;;19.96;81.60
76694;BME280;69667;52.136;5.424;2023-07-29T07:09:43;100741.38;;;20.09;81.14
76694;BME280;69667;52.136;5.424;2023-07-29T07:12:12;100738.34;;;20.66;79.49
76694;BME280;69667;52.136;5.424;2023-07-29T07:14:40;100741.59;;;20.39;79.50
76694;BME280;69667;52.136;5.424;2023-07-29T07:17:08;100749.09;;;20.14;80.51
76694;BME280;69667;52.136;5.424;2023-07-29T07:19:39;100745.91;;;19.94;81.99
76694;BME280;69667;52.136;5.424;2023-07-29T07:22:07;100751.81;;;19.75;81.34
76694;BME280;69667;52.136;5.424;2023-07-29T07:24:35;100756.66;;;19.57;82.65
76694;BME280;69667;52.136;5.424;2023-07-29T07:27:04;100751.56;;;19.38;83.55
76694;BME280;69667;52.136;5.424;2023-07-29T07:29:32;100760.31;;;19.34;84.10
76694;BME280;69667;52.136;5.424;2023-07-29T07:32:00;100766.13;;;19.31;84.62
76694;BME280;69667;52.136;5.424;2023-07-29T07:34:29;100762.00;;;19.35;83.96
76694;BME280;69667;52.136;5.424;2023-07-29T07:36:57;100760.25;;;19.50;84.36
76694;BME280;69667;52.136;5.424;2023-07-29T07:39:26;100760.41;;;19.56;83.84
76694;BME280;69667;52.136;5.424;2023-07-29T07:41:54;100761.44;;;19.63;83.90
76694;BME280;69667;52.136;5.424;2023-07-29T07:44:22;100766.22;;;19.61;84.14
76694;BME280;69667;52.136;5.424;2023-07-29T07:46:53;100765.72;;;19.58;84.13
76694;BME280;69667;52.136;5.424;2023-07-29T07:49:22;100763.63;;;19.68;83.86
76694;BME280;69667;52.136;5.424;2023-07-29T07:51:50;100759.00;;;19.84;83.79
76694;BME280;69667;52.136;5.424;2023-07-29T07:54:18;100760.34;;;20.27;81.33
76694;BME280;69667;52.136;5.424;2023-07-29T07:56:47;100751.19;;;20.65;81.40
76694;BME280;69667;52.136;5.424;2023-07-29T07:59:15;100745.50;;;20.97;79.83
76694;BME280;69667;52.136;5.424;2023-07-29T08:01:44;100754.13;;;22.19;75.78
76694;BME280;69667;52.136;5.424;2023-07-29T08:04:12;100754.34;;;21.88;75.04
76694;BME280;69667;52.136;5.424;2023-07-29T08:06:40;100755.78;;;21.18;75.94
76694;BME280;69667;52.136;5.424;2023-07-29T08:09:09;100759.66;;;20.78;78.08
76694;BME280;69667;52.136;5.424;2023-07-29T08:11:37;100761.84;;;20.60;78.09
76694;BME280;69667;52.136;5.424;2023-07-29T08:14:05;100755.41;;;20.76;77.80
76694;BME280;69667;52.136;5.424;2023-07-29T08:16:33;100764.94;;;21.10;77.60
76694;BME280;69667;52.136;5.424;2023-07-29T08:19:02;100753.44;;;21.29;76.98
76694;BME280;69667;52.136;5.424;2023-07-29T08:21:31;100760.22;;;22.14;74.62
76694;BME280;69667;52.136;5.424;2023-07-29T08:23:59;100756.34;;;21.94;74.94
76694;BME280;69667;52.136;5.424;2023-07-29T08:26:27;100746.38;;;21.93;75.21
76694;BME280;69667;52.136;5.424;2023-07-29T08:28:55;100751.63;;;22.53;73.22
76694;BME280;69667;52.136;5.424;2023-07-29T08:31:24;100762.16;;;22.35;71.38
76694;BME280;69667;52.136;5.424;2023-07-29T08:33:52;100757.94;;;21.89;72.33
76694;BME280;69667;52.136;5.424;2023-07-29T08:36:20;100756.44;;;21.20;74.96
76694;BME280;69667;52.136;5.424;2023-07-29T08:38:48;100765.16;;;20.78;76.53
76694;BME280;69667;52.136;5.424;2023-07-29T08:41:21;100767.53;;;20.59;78.69
76694;BME280;69667;52.136;5.424;2023-07-29T08:46:25;100766.84;;;20.34;79.96
76694;BME280;69667;52.136;5.424;2023-07-29T08:48:55;100764.97;;;20.27;80.09
76694;BME280;69667;52.136;5.424;2023-07-29T08:51:23;100768.41;;;20.29;81.37
76694;BME280;69667;52.136;5.424;2023-07-29T08:53:52;100767.84;;;20.33;80.62
76694;BME280;69667;52.136;5.424;2023-07-29T08:56:21;100768.34;;;20.37;80.26
76694;BME280;69667;52.136;5.424;2023-07-29T08:58:49;100766.16;;;20.32;80.61
76694;BME280;69667;52.136;5.424;2023-07-29T09:01:17;100762.81;;;20.45;80.17
76694;BME280;69667;52.136;5.424;2023-07-29T09:03:45;100759.00;;;20.54;78.70
76694;BME280;69667;52.136;5.424;2023-07-29T09:06:13;100762.91;;;20.59;78.69
76694;BME280;69667;52.136;5.424;2023-07-29T09:08:43;100764.41;;;20.62;78.58
76694;BME280;69667;52.136;5.424;2023-07-29T09:11:14;100768.97;;;20.47;78.11
76694;BME280;69667;52.136;5.424;2023-07-29T09:13:46;100776.06;;;20.41;79.44
76694;BME280;69667;52.136;5.424;2023-07-29T09:16:14;100772.78;;;21.36;78.65
76694;BME280;69667;52.136;5.424;2023-07-29T09:18:43;100765.44;;;23.23;71.92
76694;BME280;69667;52.136;5.424;2023-07-29T09:21:11;100757.06;;;23.58;67.60
76694;BME280;69667;52.136;5.424;2023-07-29T09:23:42;100761.22;;;22.99;69.84
76694;BME280;69667;52.136;5.424;2023-07-29T09:26:10;100757.41;;;22.58;69.23
76694;BME280;69667;52.136;5.424;2023-07-29T09:28:40;100760.78;;;22.24;71.47
76694;BME280;69667;52.136;5.424;2023-07-29T09:31:19;100752.44;;;22.18;71.39
76694;BME280;69667;52.136;5.424;2023-07-29T09:33:48;100762.88;;;22.08;73.53
76694;BME280;69667;52.136;5.424;2023-07-29T09:36:16;100756.81;;;21.83;73.59
76694;BME280;69667;52.136;5.424;2023-07-29T09:38:44;100757.34;;;21.50;73.19
76694;BME280;69667;52.136;5.424;2023-07-29T09:41:15;100765.91;;;21.17;74.74
76694;BME280;69667;52.136;5.424;2023-07-29T09:43:43;100762.09;;;21.18;75.34
76694;BME280;69667;52.136;5.424;2023-07-29T09:46:11;100762.91;;;21.42;75.83
76694;BME280;69667;52.136;5.424;2023-07-29T09:48:39;100756.72;;;21.77;75.15
76694;BME280;69667;52.136;5.424;2023-07-29T09:51:13;100759.56;;;21.83;73.01
76694;BME280;69667;52.136;5.424;2023-07-29T09:53:49;100767.59;;;21.56;73.38
76694;BME280;69667;52.136;5.424;2023-07-29T09:56:26;100763.84;;;21.19;74.72
76694;BME280;69667;52.136;5.424;2023-07-29T09:58:56;100768.31;;;20.90;76.94
76694;BME280;69667;52.136;5.424;2023-07-29T10:01:24;100765.72;;;20.51;79.98
76694;BME280;69667;52.136;5.424;2023-07-29T10:03:54;100787.13;;;20.17;85.01
76694;BME280;69667;52.136;5.424;2023-07-29T10:06:24;100788.63;;;19.73;95.47
76694;BME280;69667;52.136;5.424;2023-07-29T10:08:53;100775.69;;;19.27;98.99
76694;BME280;69667;52.136;5.424;2023-07-29T10:11:22;100785.09;;;19.16;100.00
76694;BME280;69667;52.136;5.424;2023-07-29T10:13:53;100773.13;;;19.17;100.00
76694;BME280;69667;52.136;5.424;2023-07-29T10:16:39;100776.53;;;19.11;100.00
76694;BME280;69667;52.136;5.424;2023-07-29T10:19:13;100777.91;;;19.31;100.00
76694;BME280;69667;52.136;5.424;2023-07-29T10:21:48;100781.13;;;19.59;100.00
76694;BME280;69667;52.136;5.424;2023-07-29T10:24:19;100784.88;;;19.74;100.00
76694;BME280;69667;52.136;5.424;2023-07-29T10:27:00;100786.28;;;19.54;100.00
76694;BME280;69667;52.136;5.424;2023-07-29T10:29:31;100787.00;;;19.32;100.00
76694;BME280;69667;52.136;5.424;2023-07-29T10:32:02;100790.75;;;19.23;100.00
76694;BME280;69667;52.136;5.424;2023-07-29T10:34:31;100786.81;;;19.09;100.00
76694;BME280;69667;52.136;5.424;2023-07-29T10:37:01;100785.25;;;19.15;100.00
76694;BME280;69667;52.136;5.424;2023-07-29T10:39:37;100804.09;;;19.42;100.00
76694;BME280;69667;52.136;5.424;2023-07-29T10:42:06;100800.63;;;19.72;100.00
76694;BME280;69667;52.136;5.424;2023-07-29T10:47:14;100797.34;;;19.84;100.00
76694;BME280;69667;52.136;5.424;2023-07-29T10:49:43;100793.56;;;19.85;100.00
76694;BME280;69667;52.136;5.424;2023-07-29T10:52:16;100777.78;;;19.95;100.00
76694;BME280;69667;52.136;5.424;2023-07-29T10:54:47;100775.56;;;19.91;100.00
76694;BME280;69667;52.136;5.424;2023-07-29T10:57:30;100771.47;;;19.87;100.00
76694;BME280;69667;52.136;5.424;2023-07-29T10:59:59;100785.22;;;19.71;100.00
76694;BME280;69667;52.136;5.424;2023-07-29T11:02:32;100785.03;;;19.72;100.00
76694;BME280;69667;52.136;5.424;2023-07-29T11:05:16;100776.50;;;20.14;100.00
76694;BME280;69667;52.136;5.424;2023-07-29T11:07:49;100781.63;;;20.56;100.00
76694;BME280;69667;52.136;5.424;2023-07-29T11:10:17;100787.34;;;20.99;100.00
76694;BME280;69667;52.136;5.424;2023-07-29T11:12:49;100798.97;;;21.01;100.00
76694;BME280;69667;52.136;5.424;2023-07-29T11:15:24;100789.47;;;20.81;100.00
76694;BME280;69667;52.136;5.424;2023-07-29T11:17:59;100787.53;;;20.67;100.00
76694;BME280;69667;52.136;5.424;2023-07-29T11:20:33;100793.44;;;20.56;100.00
76694;BME280;69667;52.136;5.424;2023-07-29T11:23:03;100802.16;;;20.29;100.00
76694;BME280;69667;52.136;5.424;2023-07-29T11:25:32;100799.84;;;20.02;100.00
76694;BME280;69667;52.136;5.424;2023-07-29T11:28:03;100804.88;;;19.82;100.00
76694;BME280;69667;52.136;5.424;2023-07-29T11:30:33;100799.06;;;19.77;100.00
76694;BME280;69667;52.136;5.424;2023-07-29T11:33:03;100814.19;;;19.49;100.00
76694;BME280;69667;52.136;5.424;2023-07-29T11:35:32;100804.47;;;19.31;100.00
76694;BME280;69667;52.136;5.424;2023-07-29T11:38:00;100793.81;;;19.28;100.00
76694;BME280;69667;52.136;5.424;2023-07-29T11:40:29;100796.38;;;19.21;100.00
76694;BME280;69667;52.136;5.424;2023-07-29T11:42:57;100800.16;;;19.12;100.00
76694;BME280;69667;52.136;5.424;2023-07-29T11:45:26;100803.56;;;19.06;100.00
76694;BME280;69667;52.136;5.424;2023-07-29T11:48:12;100806.13;;;18.83;100.00
76694;BME280;69667;52.136;5.424;2023-07-29T11:50:41;100802.00;;;18.71;100.00
76694;BME280;69667;52.136;5.424;2023-07-29T11:53:09;100793.97;;;18.70;100.00
76694;BME280;69667;52.136;5.424;2023-07-29T11:55:37;100801.16;;;18.79;100.00
76694;BME280;69667;52.136;5.424;2023-07-29T11:58:06;100804.75;;;19.12;100.00
76694;BME280;69667;52.136;5.424;2023-07-29T12:00:34;100803.25;;;19.49;100.00
76694;BME280;69667;52.136;5.424;2023-07-29T12:03:02;100813.81;;;19.68;100.00
76694;BME280;69667;52.136;5.424;2023-07-29T12:05:31;100793.28;;;20.19;100.00
76694;BME280;69667;52.136;5.424;2023-07-29T12:07:59;100797.13;;;20.94;100.00
76694;BME280;69667;52.136;5.424;2023-07-29T12:10:27;100789.47;;;21.49;100.00
76694;BME280;69667;52.136;5.424;2023-07-29T12:12:56;100791.31;;;22.00;100.00
76694;BME280;69667;52.136;5.424;2023-07-29T12:15:28;100781.56;;;22.63;100.00
76694;BME280;69667;52.136;5.424;2023-07-29T12:17:57;100779.22;;;23.02;100.00
76694;BME280;69667;52.136;5.424;2023-07-29T12:20:26;100782.38;;;22.99;97.42
76694;BME280;69667;52.136;5.424;2023-07-29T12:23:00;100783.31;;;23.27;97.20
76694;BME280;69667;52.136;5.424;2023-07-29T12:25:30;100781.06;;;23.16;98.15
76694;BME280;69667;52.136;5.424;2023-07-29T12:28:07;100779.09;;;22.89;99.02
76694;BME280;69667;52.136;5.424;2023-07-29T12:30:41;100779.03;;;22.61;100.00
76694;BME280;69667;52.136;5.424;2023-07-29T12:33:10;100769.13;;;22.16;97.87
76694;BME280;69667;52.136;5.424;2023-07-29T12:35:38;100773.97;;;21.85;100.00
76694;BME280;69667;52.136;5.424;2023-07-29T12:38:06;100781.09;;;21.80;100.00
76694;BME280;69667;52.136;5.424;2023-07-29T12:40:37;100776.31;;;21.59;100.00
76694;BME280;69667;52.136;5.424;2023-07-29T12:43:06;100785.81;;;21.71;100.00
76694;BME280;69667;52.136;5.424;2023-07-29T12:45:37;100768.75;;;21.90;100.00
76694;BME280;69667;52.136;5.424;2023-07-29T12:48:08;100784.38;;;21.90;100.00
76694;BME280;69667;52.136;5.424;2023-07-29T12:50:37;100786.41;;;21.81;97.93
76694;BME280;69667;52.136;5.424;2023-07-29T12:53:07;100783.06;;;21.86;100.00
76694;BME280;69667;52.136;5.424;2023-07-29T12:55:37;100785.06;;;21.77;99.26
76694;BME280;69667;52.136;5.424;2023-07-29T12:58:06;100779.38;;;21.93;99.27
76694;BME280;69667;52.136;5.424;2023-07-29T13:00:34;100786.81;;;22.28;100.00
76694;BME280;69667;52.136;5.424;2023-07-29T13:03:02;100775.28;;;22.33;95.73
76694;BME280;69667;52.136;5.424;2023-07-29T13:05:33;100775.53;;;22.23;95.26
76694;BME280;69667;52.136;5.424;2023-07-29T13:08:01;100772.31;;;22.70;99.85